sensor_id;sensor_type;location;lat;lon;timestamp;P1;durP1;ratioP1;P2;durP2;ratioP2
26598;SDS011;14240;51.064;16.612;2023-04-15T00:01:22;156.02;;;62.38;;
26598;SDS011;14240;51.064;16.612;2023-04-15T00:03:50;143.20;;;58.63;;
26598;SDS011;14240;51.064;16.612;2023-04-15T00:06:16;142.45;;;58.10;;
26598;SDS011;14240;51.064;16.612;2023-04-15T00:08:43;160.07;;;64.43;;
26598;SDS011;14240;51.064;16.612;2023-04-15T00:11:09;146.07;;;61.28;;
26598;SDS011;14240;51.064;16.612;2023-04-15T00:13:36;121.47;;;54.72;;
26598;SDS011;14240;51.064;16.612;2023-04-15T00:16:02;132.05;;;57.28;;
26598;SDS011;14240;51.064;16.612;2023-04-15T00:18:28;117.18;;;53.53;;
26598;SDS011;14240;51.064;16.612;2023-04-15T00:20:55;115.10;;;53.05;;
26598;SDS011;14240;51.064;16.612;2023-04-15T00:23:21;107.25;;;50.75;;
26598;SDS011;14240;51.064;16.612;2023-04-15T00:25:47;111.60;;;48.75;;
26598;SDS011;14240;51.064;16.612;2023-04-15T00:28:13;91.18;;;44.13;;
26598;SDS011;14240;51.064;16.612;2023-04-15T00:30:39;85.25;;;43.15;;
26598;SDS011;14240;51.064;16.612;2023-04-15T00:33:04;79.25;;;38.88;;
26598;SDS011;14240;51.064;16.612;2023-04-15T00:35:30;71.82;;;32.85;;
26598;SDS011;14240;51.064;16.612;2023-04-15T00:38:00;74.75;;;36.40;;
26598;SDS011;14240;51.064;16.612;2023-04-15T00:40:26;71.28;;;36.05;;
26598;SDS011;14240;51.064;16.612;2023-04-15T00:42:52;69.22;;;34.47;;
26598;SDS011;14240;51.064;16.612;2023-04-15T00:45:18;61.38;;;31.48;;
26598;SDS011;14240;51.064;16.612;2023-04-15T00:47:44;62.15;;;30.00;;
26598;SDS011;14240;51.064;16.612;2023-04-15T00:50:11;57.38;;;29.92;;
26598;SDS011;14240;51.064;16.612;2023-04-15T00:52:37;56.38;;;29.77;;
26598;SDS011;14240;51.064;16.612;2023-04-15T00:55:03;50.00;;;27.45;;
26598;SDS011;14240;51.064;16.612;2023-04-15T00:57:30;44.55;;;26.45;;
26598;SDS011;14240;51.064;16.612;2023-04-15T00:59:57;50.78;;;26.98;;
26598;SDS011;14240;51.064;16.612;2023-04-15T01:02:23;43.78;;;25.33;;
26598;SDS011;14240;51.064;16.612;2023-04-15T01:04:49;41.50;;;22.40;;
26598;SDS011;14240;51.064;16.612;2023-04-15T01:07:15;40.85;;;20.10;;
26598;SDS011;14240;51.064;16.612;2023-04-15T01:09:41;34.60;;;19.98;;
26598;SDS011;14240;51.064;16.612;2023-04-15T01:12:09;36.22;;;19.38;;
26598;SDS011;14240;51.064;16.612;2023-04-15T01:14:37;38.55;;;20.05;;
26598;SDS011;14240;51.064;16.612;2023-04-15T01:17:03;37.35;;;21.00;;
26598;SDS011;14240;51.064;16.612;2023-04-15T01:19:28;33.42;;;18.92;;
26598;SDS011;14240;51.064;16.612;2023-04-15T01:21:55;32.67;;;19.17;;
26598;SDS011;14240;51.064;16.612;2023-04-15T01:24:21;28.35;;;17.75;;
26598;SDS011;14240;51.064;16.612;2023-04-15T01:26:48;31.75;;;18.77;;
26598;SDS011;14240;51.064;16.612;2023-04-15T01:29:14;30.25;;;17.48;;
26598;SDS011;14240;51.064;16.612;2023-04-15T01:31:40;27.35;;;16.92;;
26598;SDS011;14240;51.064;16.612;2023-04-15T01:34:13;27.98;;;18.35;;
26598;SDS011;14240;51.064;16.612;2023-04-15T01:36:39;33.67;;;18.33;;
26598;SDS011;14240;51.064;16.612;2023-04-15T01:39:05;33.67;;;18.45;;
26598;SDS011;14240;51.064;16.612;2023-04-15T01:41:31;33.25;;;18.73;;
26598;SDS011;14240;51.064;16.612;2023-04-15T01:43:57;27.63;;;17.50;;
26598;SDS011;14240;51.064;16.612;2023-04-15T01:46:22;28.08;;;17.48;;
26598;SDS011;14240;51.064;16.612;2023-04-15T01:48:48;34.35;;;18.63;;
26598;SDS011;14240;51.064;16.612;2023-04-15T01:51:14;29.83;;;18.23;;
26598;SDS011;14240;51.064;16.612;2023-04-15T01:53:40;34.25;;;17.17;;
26598;SDS011;14240;51.064;16.612;2023-04-15T01:56:06;29.23;;;19.50;;
26598;SDS011;14240;51.064;16.612;2023-04-15T01:58:32;30.98;;;18.45;;
26598;SDS011;14240;51.064;16.612;2023-04-15T02:00:58;27.60;;;18.08;;
26598;SDS011;14240;51.064;16.612;2023-04-15T02:03:24;28.55;;;18.83;;
26598;SDS011;14240;51.064;16.612;2023-04-15T02:05:50;30.08;;;17.55;;
26598;SDS011;14240;51.064;16.612;2023-04-15T02:08:16;31.50;;;17.98;;
26598;SDS011;14240;51.064;16.612;2023-04-15T02:10:41;34.22;;;18.58;;
26598;SDS011;14240;51.064;16.612;2023-04-15T02:13:07;31.85;;;17.75;;
26598;SDS011;14240;51.064;16.612;2023-04-15T02:15:33;28.45;;;18.92;;
26598;SDS011;14240;51.064;16.612;2023-04-15T02:17:59;33.05;;;17.17;;
26598;SDS011;14240;51.064;16.612;2023-04-15T02:20:25;31.02;;;17.58;;
26598;SDS011;14240;51.064;16.612;2023-04-15T02:22:51;32.70;;;18.90;;
26598;SDS011;14240;51.064;16.612;2023-04-15T02:25:17;31.25;;;18.13;;
26598;SDS011;14240;51.064;16.612;2023-04-15T02:27:44;33.80;;;18.20;;
26598;SDS011;14240;51.064;16.612;2023-04-15T02:30:10;32.80;;;17.85;;
26598;SDS011;14240;51.064;16.612;2023-04-15T02:32:36;32.75;;;18.15;;
26598;SDS011;14240;51.064;16.612;2023-04-15T02:35:03;32.75;;;19.08;;
26598;SDS011;14240;51.064;16.612;2023-04-15T02:37:29;43.92;;;24.35;;
26598;SDS011;14240;51.064;16.612;2023-04-15T02:39:56;42.45;;;28.60;;
26598;SDS011;14240;51.064;16.612;2023-04-15T02:42:21;39.88;;;25.17;;
26598;SDS011;14240;51.064;16.612;2023-04-15T02:44:47;45.75;;;30.85;;
26598;SDS011;14240;51.064;16.612;2023-04-15T02:47:13;43.95;;;27.92;;
26598;SDS011;14240;51.064;16.612;2023-04-15T02:49:39;41.95;;;24.02;;
26598;SDS011;14240;51.064;16.612;2023-04-15T02:52:08;38.28;;;23.73;;
26598;SDS011;14240;51.064;16.612;2023-04-15T02:54:34;38.58;;;23.50;;
26598;SDS011;14240;51.064;16.612;2023-04-15T02:57:00;31.17;;;19.65;;
26598;SDS011;14240;51.064;16.612;2023-04-15T02:59:26;38.70;;;21.13;;
26598;SDS011;14240;51.064;16.612;2023-04-15T03:01:51;41.50;;;21.35;;
26598;SDS011;14240;51.064;16.612;2023-04-15T03:04:17;37.22;;;21.25;;
26598;SDS011;14240;51.064;16.612;2023-04-15T03:06:43;35.03;;;20.92;;
26598;SDS011;14240;51.064;16.612;2023-04-15T03:09:08;42.22;;;22.88;;
26598;SDS011;14240;51.064;16.612;2023-04-15T03:11:34;40.53;;;22.63;;
26598;SDS011;14240;51.064;16.612;2023-04-15T03:14:04;39.65;;;22.75;;
26598;SDS011;14240;51.064;16.612;2023-04-15T03:16:30;44.33;;;25.27;;
26598;SDS011;14240;51.064;16.612;2023-04-15T03:18:55;43.83;;;27.83;;
26598;SDS011;14240;51.064;16.612;2023-04-15T03:21:21;44.88;;;26.13;;
26598;SDS011;14240;51.064;16.612;2023-04-15T03:23:47;44.75;;;24.75;;
26598;SDS011;14240;51.064;16.612;2023-04-15T03:26:26;42.42;;;26.50;;
26598;SDS011;14240;51.064;16.612;2023-04-15T03:28:56;48.38;;;26.02;;
26598;SDS011;14240;51.064;16.612;2023-04-15T03:31:22;47.67;;;25.25;;
26598;SDS011;14240;51.064;16.612;2023-04-15T03:33:48;46.45;;;25.88;;
26598;SDS011;14240;51.064;16.612;2023-04-15T03:36:14;43.95;;;24.52;;
26598;SDS011;14240;51.064;16.612;2023-04-15T03:38:40;43.05;;;25.92;;
26598;SDS011;14240;51.064;16.612;2023-04-15T03:41:06;37.10;;;22.70;;
26598;SDS011;14240;51.064;16.612;2023-04-15T03:43:33;23.40;;;14.07;;
26598;SDS011;14240;51.064;16.612;2023-04-15T03:45:59;24.52;;;14.73;;
26598;SDS011;14240;51.064;16.612;2023-04-15T03:48:25;20.88;;;12.80;;
26598;SDS011;14240;51.064;16.612;2023-04-15T03:50:50;17.20;;;11.13;;
26598;SDS011;14240;51.064;16.612;2023-04-15T03:53:16;19.10;;;11.70;;
26598;SDS011;14240;51.064;16.612;2023-04-15T03:55:44;13.80;;;9.75;;
26598;SDS011;14240;51.064;16.612;2023-04-15T03:58:10;8.20;;;6.00;;
26598;SDS011;14240;51.064;16.612;2023-04-15T04:00:37;8.75;;;6.18;;
26598;SDS011;14240;51.064;16.612;2023-04-15T04:03:03;6.85;;;5.47;;
26598;SDS011;14240;51.064;16.612;2023-04-15T04:05:29;9.00;;;5.32;;
26598;SDS011;14240;51.064;16.612;2023-04-15T04:07:55;6.30;;;4.50;;
26598;SDS011;14240;51.064;16.612;2023-04-15T04:10:21;7.85;;;4.95;;
26598;SDS011;14240;51.064;16.612;2023-04-15T04:12:46;7.38;;;5.20;;
26598;SDS011;14240;51.064;16.612;2023-04-15T04:15:12;10.15;;;5.57;;
26598;SDS011;14240;51.064;16.612;2023-04-15T04:17:38;7.13;;;5.20;;
26598;SDS011;14240;51.064;16.612;2023-04-15T04:20:04;11.05;;;5.80;;
26598;SDS011;14240;51.064;16.612;2023-04-15T04:22:30;9.10;;;5.65;;
26598;SDS011;14240;51.064;16.612;2023-04-15T04:24:56;10.38;;;5.85;;
26598;SDS011;14240;51.064;16.612;2023-04-15T04:27:23;14.38;;;6.07;;
26598;SDS011;14240;51.064;16.612;2023-04-15T04:29:50;7.47;;;5.53;;
26598;SDS011;14240;51.064;16.612;2023-04-15T04:32:15;10.23;;;5.93;;
26598;SDS011;14240;51.064;16.612;2023-04-15T04:34:41;12.27;;;8.02;;
26598;SDS011;14240;51.064;16.612;2023-04-15T04:37:07;8.43;;;6.35;;
26598;SDS011;14240;51.064;16.612;2023-04-15T04:39:32;8.40;;;5.30;;
26598;SDS011;14240;51.064;16.612;2023-04-15T04:41:58;6.75;;;4.95;;
26598;SDS011;14240;51.064;16.612;2023-04-15T04:44:25;6.15;;;4.25;;
26598;SDS011;14240;51.064;16.612;2023-04-15T04:46:51;6.55;;;3.90;;
26598;SDS011;14240;51.064;16.612;2023-04-15T04:49:16;6.93;;;3.75;;
26598;SDS011;14240;51.064;16.612;2023-04-15T04:51:42;7.28;;;4.03;;
26598;SDS011;14240;51.064;16.612;2023-04-15T04:54:08;5.55;;;3.47;;
26598;SDS011;14240;51.064;16.612;2023-04-15T04:56:33;3.88;;;3.05;;
26598;SDS011;14240;51.064;16.612;2023-04-15T04:58:59;4.03;;;2.65;;
26598;SDS011;14240;51.064;16.612;2023-04-15T05:01:25;4.75;;;3.33;;
26598;SDS011;14240;51.064;16.612;2023-04-15T05:03:51;3.95;;;2.63;;
26598;SDS011;14240;51.064;16.612;2023-04-15T05:06:17;3.47;;;2.45;;
26598;SDS011;14240;51.064;16.612;2023-04-15T05:08:43;3.10;;;2.42;;
26598;SDS011;14240;51.064;16.612;2023-04-15T05:13:37;6.22;;;4.07;;
26598;SDS011;14240;51.064;16.612;2023-04-15T05:16:03;6.95;;;3.92;;
26598;SDS011;14240;51.064;16.612;2023-04-15T05:18:30;8.90;;;5.67;;
26598;SDS011;14240;51.064;16.612;2023-04-15T05:20:56;7.95;;;4.75;;
26598;SDS011;14240;51.064;16.612;2023-04-15T05:23:22;4.88;;;2.75;;
26598;SDS011;14240;51.064;16.612;2023-04-15T05:25:47;4.88;;;3.20;;
26598;SDS011;14240;51.064;16.612;2023-04-15T05:28:13;3.70;;;2.47;;
26598;SDS011;14240;51.064;16.612;2023-04-15T05:30:39;1.60;;;1.50;;
26598;SDS011;14240;51.064;16.612;2023-04-15T05:33:05;1.75;;;1.38;;
26598;SDS011;14240;51.064;16.612;2023-04-15T05:35:31;3.00;;;1.73;;
26598;SDS011;14240;51.064;16.612;2023-04-15T05:37:57;1.85;;;1.30;;
26598;SDS011;14240;51.064;16.612;2023-04-15T05:40:23;1.10;;;1.00;;
26598;SDS011;14240;51.064;16.612;2023-04-15T05:42:49;1.05;;;1.02;;
26598;SDS011;14240;51.064;16.612;2023-04-15T05:45:15;1.63;;;1.52;;
26598;SDS011;14240;51.064;16.612;2023-04-15T05:47:40;1.77;;;1.17;;
26598;SDS011;14240;51.064;16.612;2023-04-15T05:50:06;1.77;;;1.40;;
26598;SDS011;14240;51.064;16.612;2023-04-15T05:52:32;2.30;;;1.50;;
26598;SDS011;14240;51.064;16.612;2023-04-15T05:54:58;2.28;;;1.35;;
26598;SDS011;14240;51.064;16.612;2023-04-15T05:57:23;1.63;;;1.45;;
26598;SDS011;14240;51.064;16.612;2023-04-15T05:59:49;2.10;;;1.33;;
26598;SDS011;14240;51.064;16.612;2023-04-15T06:02:19;1.33;;;1.20;;
26598;SDS011;14240;51.064;16.612;2023-04-15T06:04:45;2.53;;;1.52;;
26598;SDS011;14240;51.064;16.612;2023-04-15T06:07:12;1.52;;;1.27;;
26598;SDS011;14240;51.064;16.612;2023-04-15T06:09:38;1.45;;;1.30;;
26598;SDS011;14240;51.064;16.612;2023-04-15T06:12:04;2.75;;;1.35;;
26598;SDS011;14240;51.064;16.612;2023-04-15T06:14:30;3.85;;;2.13;;
26598;SDS011;14240;51.064;16.612;2023-04-15T06:16:56;2.00;;;1.80;;
26598;SDS011;14240;51.064;16.612;2023-04-15T06:19:22;2.70;;;1.70;;
26598;SDS011;14240;51.064;16.612;2023-04-15T06:21:48;2.45;;;1.70;;
26598;SDS011;14240;51.064;16.612;2023-04-15T06:24:14;2.10;;;1.77;;
26598;SDS011;14240;51.064;16.612;2023-04-15T06:26:40;14.27;;;6.68;;
26598;SDS011;14240;51.064;16.612;2023-04-15T06:29:05;4.13;;;2.05;;
26598;SDS011;14240;51.064;16.612;2023-04-15T06:31:31;2.33;;;1.60;;
26598;SDS011;14240;51.064;16.612;2023-04-15T06:33:57;3.90;;;2.00;;
26598;SDS011;14240;51.064;16.612;2023-04-15T06:36:22;2.65;;;1.70;;
26598;SDS011;14240;51.064;16.612;2023-04-15T06:38:48;2.78;;;2.08;;
26598;SDS011;14240;51.064;16.612;2023-04-15T06:41:14;3.95;;;1.90;;
26598;SDS011;14240;51.064;16.612;2023-04-15T06:43:40;1.40;;;1.30;;
26598;SDS011;14240;51.064;16.612;2023-04-15T06:46:06;1.55;;;1.33;;
26598;SDS011;14240;51.064;16.612;2023-04-15T06:48:32;2.28;;;1.25;;
26598;SDS011;14240;51.064;16.612;2023-04-15T06:50:57;2.17;;;1.38;;
26598;SDS011;14240;51.064;16.612;2023-04-15T06:53:26;1.58;;;1.42;;
26598;SDS011;14240;51.064;16.612;2023-04-15T06:55:54;2.00;;;1.40;;
26598;SDS011;14240;51.064;16.612;2023-04-15T06:58:20;1.85;;;1.40;;
26598;SDS011;14240;51.064;16.612;2023-04-15T07:00:46;1.90;;;1.58;;
26598;SDS011;14240;51.064;16.612;2023-04-15T07:03:15;5.85;;;3.03;;
26598;SDS011;14240;51.064;16.612;2023-04-15T07:05:40;5.05;;;3.10;;
26598;SDS011;14240;51.064;16.612;2023-04-15T07:08:07;7.97;;;4.03;;
26598;SDS011;14240;51.064;16.612;2023-04-15T07:10:33;4.72;;;3.15;;
26598;SDS011;14240;51.064;16.612;2023-04-15T07:12:59;10.60;;;5.60;;
26598;SDS011;14240;51.064;16.612;2023-04-15T07:15:25;4.25;;;2.33;;
26598;SDS011;14240;51.064;16.612;2023-04-15T07:17:51;4.13;;;3.00;;
26598;SDS011;14240;51.064;16.612;2023-04-15T07:20:17;3.65;;;1.80;;
26598;SDS011;14240;51.064;16.612;2023-04-15T07:22:42;4.65;;;2.83;;
26598;SDS011;14240;51.064;16.612;2023-04-15T07:25:08;6.88;;;4.25;;
26598;SDS011;14240;51.064;16.612;2023-04-15T07:27:34;3.03;;;2.05;;
26598;SDS011;14240;51.064;16.612;2023-04-15T07:30:00;3.50;;;2.75;;
26598;SDS011;14240;51.064;16.612;2023-04-15T07:32:26;4.38;;;2.70;;
26598;SDS011;14240;51.064;16.612;2023-04-15T07:34:52;7.45;;;5.32;;
26598;SDS011;14240;51.064;16.612;2023-04-15T07:37:17;8.07;;;4.68;;
26598;SDS011;14240;51.064;16.612;2023-04-15T07:39:43;4.63;;;2.88;;
26598;SDS011;14240;51.064;16.612;2023-04-15T07:42:09;4.63;;;2.40;;
26598;SDS011;14240;51.064;16.612;2023-04-15T07:44:35;5.43;;;2.58;;
26598;SDS011;14240;51.064;16.612;2023-04-15T07:47:01;3.40;;;1.70;;
26598;SDS011;14240;51.064;16.612;2023-04-15T07:49:28;12.23;;;5.93;;
26598;SDS011;14240;51.064;16.612;2023-04-15T07:51:54;5.57;;;3.30;;
26598;SDS011;14240;51.064;16.612;2023-04-15T07:54:21;2.15;;;1.40;;
26598;SDS011;14240;51.064;16.612;2023-04-15T07:56:47;0.88;;;0.88;;
26598;SDS011;14240;51.064;16.612;2023-04-15T07:59:13;1.65;;;0.80;;
26598;SDS011;14240;51.064;16.612;2023-04-15T08:01:41;1.10;;;0.90;;
26598;SDS011;14240;51.064;16.612;2023-04-15T08:04:08;0.80;;;0.80;;
26598;SDS011;14240;51.064;16.612;2023-04-15T08:06:37;1.95;;;1.40;;
26598;SDS011;14240;51.064;16.612;2023-04-15T08:09:04;1.55;;;1.30;;
26598;SDS011;14240;51.064;16.612;2023-04-15T08:11:31;1.63;;;1.13;;
26598;SDS011;14240;51.064;16.612;2023-04-15T08:13:57;2.03;;;1.38;;
26598;SDS011;14240;51.064;16.612;2023-04-15T08:16:23;1.42;;;1.05;;
26598;SDS011;14240;51.064;16.612;2023-04-15T08:18:53;7.90;;;5.25;;
26598;SDS011;14240;51.064;16.612;2023-04-15T08:21:19;6.28;;;2.45;;
26598;SDS011;14240;51.064;16.612;2023-04-15T08:23:46;2.08;;;1.55;;
26598;SDS011;14240;51.064;16.612;2023-04-15T08:26:14;1.30;;;1.20;;
26598;SDS011;14240;51.064;16.612;2023-04-15T08:28:40;1.17;;;1.00;;
26598;SDS011;14240;51.064;16.612;2023-04-15T08:31:11;1.05;;;0.93;;
26598;SDS011;14240;51.064;16.612;2023-04-15T08:33:38;0.70;;;0.70;;
26598;SDS011;14240;51.064;16.612;2023-04-15T08:36:04;1.15;;;1.00;;
26598;SDS011;14240;51.064;16.612;2023-04-15T08:38:32;10.55;;;2.97;;
26598;SDS011;14240;51.064;16.612;2023-04-15T08:41:02;3.60;;;1.75;;
26598;SDS011;14240;51.064;16.612;2023-04-15T08:43:34;2.35;;;1.40;;
26598;SDS011;14240;51.064;16.612;2023-04-15T08:46:08;1.88;;;1.05;;
26598;SDS011;14240;51.064;16.612;2023-04-15T08:48:36;1.00;;;0.90;;
26598;SDS011;14240;51.064;16.612;2023-04-15T08:51:04;1.02;;;1.00;;
26598;SDS011;14240;51.064;16.612;2023-04-15T08:53:31;1.27;;;1.23;;
26598;SDS011;14240;51.064;16.612;2023-04-15T08:55:57;1.42;;;1.30;;
26598;SDS011;14240;51.064;16.612;2023-04-15T08:58:26;1.20;;;1.10;;
26598;SDS011;14240;51.064;16.612;2023-04-15T09:00:52;0.70;;;0.70;;
26598;SDS011;14240;51.064;16.612;2023-04-15T09:03:19;1.10;;;0.82;;
26598;SDS011;14240;51.064;16.612;2023-04-15T09:08:12;1.40;;;1.02;;
26598;SDS011;14240;51.064;16.612;2023-04-15T09:10:38;4.47;;;2.45;;
26598;SDS011;14240;51.064;16.612;2023-04-15T09:13:03;0.95;;;0.90;;
26598;SDS011;14240;51.064;16.612;2023-04-15T09:15:29;5.32;;;2.78;;
26598;SDS011;14240;51.064;16.612;2023-04-15T09:17:57;1.17;;;0.70;;
26598;SDS011;14240;51.064;16.612;2023-04-15T09:20:23;0.88;;;0.75;;
26598;SDS011;14240;51.064;16.612;2023-04-15T09:22:49;0.75;;;0.63;;
26598;SDS011;14240;51.064;16.612;2023-04-15T09:27:48;0.70;;;0.70;;
26598;SDS011;14240;51.064;16.612;2023-04-15T09:30:19;1.33;;;1.00;;
26598;SDS011;14240;51.064;16.612;2023-04-15T09:33:03;0.80;;;0.80;;
26598;SDS011;14240;51.064;16.612;2023-04-15T09:35:36;0.82;;;0.82;;
26598;SDS011;14240;51.064;16.612;2023-04-15T09:38:03;1.20;;;0.80;;
26598;SDS011;14240;51.064;16.612;2023-04-15T09:43:02;4.47;;;2.63;;
26598;SDS011;14240;51.064;16.612;2023-04-15T09:45:29;1.13;;;1.02;;
26598;SDS011;14240;51.064;16.612;2023-04-15T09:47:56;0.95;;;0.93;;
26598;SDS011;14240;51.064;16.612;2023-04-15T09:50:26;1.00;;;0.80;;
26598;SDS011;14240;51.064;16.612;2023-04-15T09:52:53;3.67;;;0.90;;
26598;SDS011;14240;51.064;16.612;2023-04-15T09:55:19;0.90;;;0.80;;
26598;SDS011;14240;51.064;16.612;2023-04-15T09:57:45;0.88;;;0.80;;
26598;SDS011;14240;51.064;16.612;2023-04-15T10:00:11;1.25;;;1.00;;
26598;SDS011;14240;51.064;16.612;2023-04-15T10:02:38;0.82;;;0.82;;
26598;SDS011;14240;51.064;16.612;2023-04-15T10:05:13;1.40;;;0.80;;
26598;SDS011;14240;51.064;16.612;2023-04-15T10:07:45;1.05;;;0.90;;
26598;SDS011;14240;51.064;16.612;2023-04-15T10:10:12;0.80;;;0.80;;
26598;SDS011;14240;51.064;16.612;2023-04-15T10:12:40;0.82;;;0.80;;
26598;SDS011;14240;51.064;16.612;2023-04-15T10:15:06;1.38;;;1.05;;
26598;SDS011;14240;51.064;16.612;2023-04-15T10:17:38;0.80;;;0.80;;
26598;SDS011;14240;51.064;16.612;2023-04-15T10:20:09;0.85;;;0.85;;
26598;SDS011;14240;51.064;16.612;2023-04-15T10:22:37;1.23;;;0.82;;
26598;SDS011;14240;51.064;16.612;2023-04-15T10:25:03;1.00;;;0.90;;
26598;SDS011;14240;51.064;16.612;2023-04-15T10:29:58;0.63;;;0.63;;
26598;SDS011;14240;51.064;16.612;2023-04-15T10:32:25;0.82;;;0.80;;
26598;SDS011;14240;51.064;16.612;2023-04-15T10:34:51;1.45;;;1.17;;
26598;SDS011;14240;51.064;16.612;2023-04-15T10:37:19;1.48;;;1.13;;
26598;SDS011;14240;51.064;16.612;2023-04-15T10:40:44;2.15;;;1.20;;
26598;SDS011;14240;51.064;16.612;2023-04-15T10:43:00;2.08;;;1.05;;
26598;SDS011;14240;51.064;16.612;2023-04-15T10:45:27;3.60;;;1.50;;
26598;SDS011;14240;51.064;16.612;2023-04-15T10:48:03;1.75;;;1.15;;
26598;SDS011;14240;51.064;16.612;2023-04-15T10:50:32;4.25;;;2.38;;
26598;SDS011;14240;51.064;16.612;2023-04-15T10:52:58;1.23;;;1.10;;
26598;SDS011;14240;51.064;16.612;2023-04-15T10:55:30;1.20;;;1.10;;
26598;SDS011;14240;51.064;16.612;2023-04-15T10:57:58;1.95;;;1.60;;
26598;SDS011;14240;51.064;16.612;2023-04-15T11:00:27;1.42;;;1.10;;
26598;SDS011;14240;51.064;16.612;2023-04-15T11:02:58;1.88;;;1.10;;
26598;SDS011;14240;51.064;16.612;2023-04-15T11:08:14;1.15;;;1.10;;
26598;SDS011;14240;51.064;16.612;2023-04-15T11:15:39;1.20;;;1.10;;
26598;SDS011;14240;51.064;16.612;2023-04-15T11:18:12;1.30;;;1.20;;
26598;SDS011;14240;51.064;16.612;2023-04-15T11:20:49;2.57;;;1.90;;
26598;SDS011;14240;51.064;16.612;2023-04-15T11:25:42;11.60;;;6.32;;
26598;SDS011;14240;51.064;16.612;2023-04-15T11:28:09;6.63;;;3.72;;
26598;SDS011;14240;51.064;16.612;2023-04-15T11:30:36;6.82;;;2.95;;
26598;SDS011;14240;51.064;16.612;2023-04-15T11:33:04;2.57;;;2.23;;
26598;SDS011;14240;51.064;16.612;2023-04-15T11:35:31;1.30;;;1.20;;
26598;SDS011;14240;51.064;16.612;2023-04-15T11:37:57;1.98;;;1.58;;
26598;SDS011;14240;51.064;16.612;2023-04-15T11:40:27;1.73;;;1.27;;
26598;SDS011;14240;51.064;16.612;2023-04-15T11:48:21;10.05;;;5.05;;
26598;SDS011;14240;51.064;16.612;2023-04-15T11:51:01;4.38;;;2.70;;
26598;SDS011;14240;51.064;16.612;2023-04-15T11:56:05;3.25;;;2.47;;
26598;SDS011;14240;51.064;16.612;2023-04-15T11:58:32;7.93;;;4.40;;
26598;SDS011;14240;51.064;16.612;2023-04-15T12:01:00;4.50;;;2.47;;
26598;SDS011;14240;51.064;16.612;2023-04-15T12:03:28;1.52;;;1.42;;
26598;SDS011;14240;51.064;16.612;2023-04-15T12:06:12;1.85;;;1.50;;
26598;SDS011;14240;51.064;16.612;2023-04-15T12:11:20;1.30;;;1.20;;
26598;SDS011;14240;51.064;16.612;2023-04-15T12:14:04;8.35;;;3.40;;
26598;SDS011;14240;51.064;16.612;2023-04-15T12:16:32;4.50;;;2.70;;
26598;SDS011;14240;51.064;16.612;2023-04-15T12:19:10;7.72;;;3.70;;
26598;SDS011;14240;51.064;16.612;2023-04-15T12:21:40;1.30;;;1.20;;
26598;SDS011;14240;51.064;16.612;2023-04-15T12:24:09;2.00;;;1.20;;
26598;SDS011;14240;51.064;16.612;2023-04-15T12:29:31;1.42;;;1.27;;
26598;SDS011;14240;51.064;16.612;2023-04-15T12:32:04;1.25;;;1.15;;
26598;SDS011;14240;51.064;16.612;2023-04-15T12:34:50;1.17;;;1.13;;
26598;SDS011;14240;51.064;16.612;2023-04-15T12:37:18;2.53;;;2.00;;
26598;SDS011;14240;51.064;16.612;2023-04-15T12:39:45;3.83;;;1.63;;
26598;SDS011;14240;51.064;16.612;2023-04-15T12:42:13;5.95;;;2.50;;
26598;SDS011;14240;51.064;16.612;2023-04-15T12:44:40;7.60;;;2.30;;
26598;SDS011;14240;51.064;16.612;2023-04-15T12:47:07;7.17;;;2.00;;
26598;SDS011;14240;51.064;16.612;2023-04-15T12:49:42;3.95;;;2.28;;
26598;SDS011;14240;51.064;16.612;2023-04-15T12:52:10;5.72;;;2.35;;
26598;SDS011;14240;51.064;16.612;2023-04-15T12:54:38;2.83;;;2.00;;
26598;SDS011;14240;51.064;16.612;2023-04-15T12:57:04;2.90;;;2.23;;
26598;SDS011;14240;51.064;16.612;2023-04-15T12:59:30;1.27;;;1.17;;
26598;SDS011;14240;51.064;16.612;2023-04-15T13:01:56;5.05;;;2.55;;
26598;SDS011;14240;51.064;16.612;2023-04-15T13:04:22;13.60;;;4.97;;
26598;SDS011;14240;51.064;16.612;2023-04-15T13:06:54;15.70;;;6.97;;
26598;SDS011;14240;51.064;16.612;2023-04-15T13:09:20;24.75;;;10.80;;
26598;SDS011;14240;51.064;16.612;2023-04-15T13:11:46;12.45;;;4.72;;
26598;SDS011;14240;51.064;16.612;2023-04-15T13:14:13;10.90;;;5.15;;
26598;SDS011;14240;51.064;16.612;2023-04-15T13:16:39;2.45;;;1.92;;
26598;SDS011;14240;51.064;16.612;2023-04-15T13:19:05;3.47;;;2.10;;
26598;SDS011;14240;51.064;16.612;2023-04-15T13:21:31;2.50;;;1.98;;
26598;SDS011;14240;51.064;16.612;2023-04-15T13:26:24;6.68;;;3.90;;
26598;SDS011;14240;51.064;16.612;2023-04-15T13:28:50;4.35;;;2.53;;
26598;SDS011;14240;51.064;16.612;2023-04-15T13:31:16;6.82;;;3.78;;
26598;SDS011;14240;51.064;16.612;2023-04-15T13:33:41;3.40;;;1.63;;
26598;SDS011;14240;51.064;16.612;2023-04-15T13:36:07;1.83;;;1.42;;
26598;SDS011;14240;51.064;16.612;2023-04-15T13:38:33;4.03;;;1.80;;
26598;SDS011;14240;51.064;16.612;2023-04-15T13:40:59;2.35;;;1.50;;
26598;SDS011;14240;51.064;16.612;2023-04-15T13:43:25;3.50;;;2.28;;
26598;SDS011;14240;51.064;16.612;2023-04-15T13:45:51;9.27;;;5.30;;
26598;SDS011;14240;51.064;16.612;2023-04-15T13:48:17;5.90;;;3.90;;
26598;SDS011;14240;51.064;16.612;2023-04-15T13:50:43;2.30;;;1.77;;
26598;SDS011;14240;51.064;16.612;2023-04-15T13:53:10;3.03;;;2.08;;
26598;SDS011;14240;51.064;16.612;2023-04-15T13:55:36;3.08;;;1.50;;
26598;SDS011;14240;51.064;16.612;2023-04-15T13:58:05;1.98;;;1.77;;
26598;SDS011;14240;51.064;16.612;2023-04-15T14:00:32;3.97;;;2.58;;
26598;SDS011;14240;51.064;16.612;2023-04-15T14:02:58;2.83;;;1.50;;
26598;SDS011;14240;51.064;16.612;2023-04-15T14:05:25;1.70;;;1.60;;
26598;SDS011;14240;51.064;16.612;2023-04-15T14:07:52;2.33;;;1.73;;
26598;SDS011;14240;51.064;16.612;2023-04-15T14:10:18;1.40;;;1.30;;
26598;SDS011;14240;51.064;16.612;2023-04-15T14:12:43;5.75;;;2.60;;
26598;SDS011;14240;51.064;16.612;2023-04-15T14:15:09;9.13;;;6.63;;
26598;SDS011;14240;51.064;16.612;2023-04-15T14:17:35;5.53;;;3.55;;
26598;SDS011;14240;51.064;16.612;2023-04-15T14:20:01;3.47;;;2.53;;
26598;SDS011;14240;51.064;16.612;2023-04-15T14:22:27;2.63;;;2.10;;
26598;SDS011;14240;51.064;16.612;2023-04-15T14:24:52;1.83;;;1.58;;
26598;SDS011;14240;51.064;16.612;2023-04-15T14:27:19;2.05;;;1.80;;
26598;SDS011;14240;51.064;16.612;2023-04-15T14:29:45;1.50;;;1.40;;
26598;SDS011;14240;51.064;16.612;2023-04-15T14:32:11;1.80;;;1.48;;
26598;SDS011;14240;51.064;16.612;2023-04-15T14:34:40;2.45;;;1.77;;
26598;SDS011;14240;51.064;16.612;2023-04-15T14:37:06;4.65;;;1.75;;
26598;SDS011;14240;51.064;16.612;2023-04-15T14:39:31;1.95;;;1.52;;
26598;SDS011;14240;51.064;16.612;2023-04-15T14:41:57;1.88;;;1.50;;
26598;SDS011;14240;51.064;16.612;2023-04-15T14:44:23;1.85;;;1.60;;
26598;SDS011;14240;51.064;16.612;2023-04-15T14:46:49;2.35;;;1.42;;
26598;SDS011;14240;51.064;16.612;2023-04-15T14:49:15;1.70;;;1.33;;
26598;SDS011;14240;51.064;16.612;2023-04-15T14:51:41;1.73;;;1.60;;
26598;SDS011;14240;51.064;16.612;2023-04-15T14:54:07;1.30;;;1.20;;
26598;SDS011;14240;51.064;16.612;2023-04-15T14:56:33;2.00;;;1.88;;
26598;SDS011;14240;51.064;16.612;2023-04-15T14:58:58;2.50;;;1.50;;
26598;SDS011;14240;51.064;16.612;2023-04-15T15:01:25;1.88;;;1.30;;
26598;SDS011;14240;51.064;16.612;2023-04-15T15:03:54;1.33;;;1.23;;